sensor_id;sensor_type;location;lat;lon;timestamp;pressure;altitude;pressure_sealevel;temperature;humidity
69037;BME280;58547;51.690;5.186;2022-08-19T00:01:49;101401.97;;;19.23;81.97
69037;BME280;58547;51.690;5.186;2022-08-19T00:04:17;101409.06;;;19.23;81.22
69037;BME280;58547;51.690;5.186;2022-08-19T00:06:45;101409.41;;;19.29;81.57
69037;BME280;58547;51.690;5.186;2022-08-19T00:09:14;101408.00;;;19.25;81.04
69037;BME280;58547;51.690;5.186;2022-08-19T00:11:40;101404.63;;;19.23;81.16
69037;BME280;58547;51.690;5.186;2022-08-19T00:14:07;101411.34;;;19.27;81.79
69037;BME280;58547;51.690;5.186;2022-08-19T00:16:35;101408.00;;;19.25;81.35
69037;BME280;58547;51.690;5.186;2022-08-19T00:19:00;101412.41;;;19.25;81.68
69037;BME280;58547;51.690;5.186;2022-08-19T00:21:26;101410.88;;;19.22;81.62
69037;BME280;58547;51.690;5.186;2022-08-19T00:23:53;101404.97;;;19.18;81.74
69037;BME280;58547;51.690;5.186;2022-08-19T00:26:19;101399.84;;;19.17;81.88
69037;BME280;58547;51.690;5.186;2022-08-19T00:28:45;101402.22;;;19.20;82.03
69037;BME280;58547;51.690;5.186;2022-08-19T00:31:11;101402.50;;;19.17;83.45
69037;BME280;58547;51.690;5.186;2022-08-19T00:33:36;101397.88;;;18.98;82.13
69037;BME280;58547;51.690;5.186;2022-08-19T00:36:04;101404.22;;;18.95;84.18
69037;BME280;58547;51.690;5.186;2022-08-19T00:38:32;101406.75;;;18.97;82.41
69037;BME280;58547;51.690;5.186;2022-08-19T00:40:57;101401.84;;;18.92;82.83
69037;BME280;58547;51.690;5.186;2022-08-19T00:43:25;101398.72;;;18.87;81.99
69037;BME280;58547;51.690;5.186;2022-08-19T00:45:51;101413.28;;;18.82;80.95
69037;BME280;58547;51.690;5.186;2022-08-19T00:48:18;101409.91;;;18.79;82.11
69037;BME280;58547;51.690;5.186;2022-08-19T00:50:44;101410.94;;;18.77;82.63
69037;BME280;58547;51.690;5.186;2022-08-19T00:53:15;101408.44;;;18.75;83.58
69037;BME280;58547;51.690;5.186;2022-08-19T00:55:48;101407.97;;;18.70;83.62
69037;BME280;58547;51.690;5.186;2022-08-19T00:58:17;101407.38;;;18.55;83.51
69037;BME280;58547;51.690;5.186;2022-08-19T01:00:45;101407.63;;;18.41;84.60
69037;BME280;58547;51.690;5.186;2022-08-19T01:03:13;101412.34;;;18.37;82.94
69037;BME280;58547;51.690;5.186;2022-08-19T01:05:41;101398.03;;;18.40;84.18
69037;BME280;58547;51.690;5.186;2022-08-19T01:08:07;101408.84;;;18.48;84.20
69037;BME280;58547;51.690;5.186;2022-08-19T01:10:40;101404.50;;;18.47;83.52
69037;BME280;58547;51.690;5.186;2022-08-19T01:13:07;101405.94;;;18.51;84.41
69037;BME280;58547;51.690;5.186;2022-08-19T01:15:38;101401.38;;;18.53;84.24
69037;BME280;58547;51.690;5.186;2022-08-19T01:18:08;101405.47;;;18.57;84.22
69037;BME280;58547;51.690;5.186;2022-08-19T01:20:35;101402.09;;;18.55;84.22
69037;BME280;58547;51.690;5.186;2022-08-19T01:23:01;101407.38;;;18.55;84.69
69037;BME280;58547;51.690;5.186;2022-08-19T01:25:31;101404.75;;;18.55;84.49
69037;BME280;58547;51.690;5.186;2022-08-19T01:27:57;101415.41;;;18.54;83.92
69037;BME280;58547;51.690;5.186;2022-08-19T01:30:27;101413.66;;;18.54;84.30
69037;BME280;58547;51.690;5.186;2022-08-19T01:32:53;101403.56;;;18.48;84.38
69037;BME280;58547;51.690;5.186;2022-08-19T01:35:20;101392.28;;;18.46;84.04
69037;BME280;58547;51.690;5.186;2022-08-19T01:37:51;101397.91;;;18.41;82.94
69037;BME280;58547;51.690;5.186;2022-08-19T01:40:18;101403.06;;;18.43;83.96
69037;BME280;58547;51.690;5.186;2022-08-19T01:42:47;101405.00;;;18.41;83.64
69037;BME280;58547;51.690;5.186;2022-08-19T01:45:13;101407.88;;;18.38;84.18
69037;BME280;58547;51.690;5.186;2022-08-19T01:47:39;101407.38;;;18.33;84.70
69037;BME280;58547;51.690;5.186;2022-08-19T01:50:06;101415.94;;;18.25;85.22
69037;BME280;58547;51.690;5.186;2022-08-19T01:52:31;101410.63;;;18.03;87.00
69037;BME280;58547;51.690;5.186;2022-08-19T01:54:57;101409.72;;;17.79;87.97
69037;BME280;58547;51.690;5.186;2022-08-19T01:57:22;101414.78;;;17.83;87.74
69037;BME280;58547;51.690;5.186;2022-08-19T01:59:47;101413.00;;;17.94;84.56
69037;BME280;58547;51.690;5.186;2022-08-19T02:02:13;101408.56;;;17.95;85.80
69037;BME280;58547;51.690;5.186;2022-08-19T02:04:38;101403.06;;;17.98;85.25
69037;BME280;58547;51.690;5.186;2022-08-19T02:07:05;101415.31;;;17.75;86.69
69037;BME280;58547;51.690;5.186;2022-08-19T02:09:31;101416.75;;;17.68;87.17
69037;BME280;58547;51.690;5.186;2022-08-19T02:11:56;101420.22;;;17.68;87.67
69037;BME280;58547;51.690;5.186;2022-08-19T02:14:22;101427.09;;;17.71;87.53
69037;BME280;58547;51.690;5.186;2022-08-19T02:16:47;101429.78;;;17.58;88.83
69037;BME280;58547;51.690;5.186;2022-08-19T02:19:12;101430.50;;;17.60;87.41
69037;BME280;58547;51.690;5.186;2022-08-19T02:21:38;101427.00;;;17.48;88.94
69037;BME280;58547;51.690;5.186;2022-08-19T02:24:04;101433.13;;;17.49;88.86
69037;BME280;58547;51.690;5.186;2022-08-19T02:26:29;101426.88;;;17.50;88.57
69037;BME280;58547;51.690;5.186;2022-08-19T02:28:56;101429.22;;;17.42;88.95
69037;BME280;58547;51.690;5.186;2022-08-19T02:31:23;101419.03;;;17.37;91.08
69037;BME280;58547;51.690;5.186;2022-08-19T02:33:49;101426.00;;;17.38;89.98
69037;BME280;58547;51.690;5.186;2022-08-19T02:36:16;101420.94;;;17.35;91.20
69037;BME280;58547;51.690;5.186;2022-08-19T02:38:43;101428.84;;;17.35;91.11
69037;BME280;58547;51.690;5.186;2022-08-19T02:41:15;101418.88;;;17.27;91.95
69037;BME280;58547;51.690;5.186;2022-08-19T02:43:40;101413.91;;;17.35;91.77
69037;BME280;58547;51.690;5.186;2022-08-19T02:46:18;101423.22;;;17.39;91.93
69037;BME280;58547;51.690;5.186;2022-08-19T02:48:49;101416.66;;;17.45;91.32
69037;BME280;58547;51.690;5.186;2022-08-19T02:51:35;101423.28;;;17.51;90.76
69037;BME280;58547;51.690;5.186;2022-08-19T02:54:01;101419.22;;;17.58;89.94
69037;BME280;58547;51.690;5.186;2022-08-19T02:56:27;101424.28;;;17.61;89.33
69037;BME280;58547;51.690;5.186;2022-08-19T02:58:54;101425.97;;;17.62;89.64
69037;BME280;58547;51.690;5.186;2022-08-19T03:01:29;101421.31;;;17.66;88.79
69037;BME280;58547;51.690;5.186;2022-08-19T03:03:55;101423.47;;;17.72;89.25
69037;BME280;58547;51.690;5.186;2022-08-19T03:06:21;101414.00;;;17.69;88.49
69037;BME280;58547;51.690;5.186;2022-08-19T03:08:48;101414.59;;;17.73;90.01
69037;BME280;58547;51.690;5.186;2022-08-19T03:11:29;101410.91;;;17.75;88.54
69037;BME280;58547;51.690;5.186;2022-08-19T03:13:56;101410.19;;;17.73;88.63
69037;BME280;58547;51.690;5.186;2022-08-19T03:16:23;101417.47;;;17.70;89.05
69037;BME280;58547;51.690;5.186;2022-08-19T03:18:49;101413.72;;;17.61;88.71
69037;BME280;58547;51.690;5.186;2022-08-19T03:21:21;101416.09;;;17.53;88.21
69037;BME280;58547;51.690;5.186;2022-08-19T03:23:47;101415.00;;;17.44;89.20
69037;BME280;58547;51.690;5.186;2022-08-19T03:26:13;101415.00;;;17.44;90.15
69037;BME280;58547;51.690;5.186;2022-08-19T03:28:43;101427.84;;;17.49;90.25
69037;BME280;58547;51.690;5.186;2022-08-19T03:31:13;101427.84;;;17.49;88.51
69037;BME280;58547;51.690;5.186;2022-08-19T03:33:39;101419.94;;;17.49;87.72
69037;BME280;58547;51.690;5.186;2022-08-19T03:38:38;101419.16;;;17.35;88.37
69037;BME280;58547;51.690;5.186;2022-08-19T03:41:10;101416.28;;;17.38;89.05
69037;BME280;58547;51.690;5.186;2022-08-19T03:43:37;101425.63;;;17.31;88.66
69037;BME280;58547;51.690;5.186;2022-08-19T03:46:18;101427.28;;;17.32;88.50
69037;BME280;58547;51.690;5.186;2022-08-19T03:48:46;101421.78;;;17.11;89.27
69037;BME280;58547;51.690;5.186;2022-08-19T03:51:18;101415.41;;;17.03;90.05
69037;BME280;58547;51.690;5.186;2022-08-19T03:53:45;101414.44;;;17.04;90.27
69037;BME280;58547;51.690;5.186;2022-08-19T03:56:10;101413.41;;;16.93;90.84
69037;BME280;58547;51.690;5.186;2022-08-19T03:58:36;101410.91;;;16.79;91.97
69037;BME280;58547;51.690;5.186;2022-08-19T04:01:12;101406.09;;;16.73;93.14
69037;BME280;58547;51.690;5.186;2022-08-19T04:03:39;101408.53;;;16.63;93.72
69037;BME280;58547;51.690;5.186;2022-08-19T04:06:11;101404.31;;;16.61;94.81
69037;BME280;58547;51.690;5.186;2022-08-19T04:08:39;101409.06;;;16.55;94.84
69037;BME280;58547;51.690;5.186;2022-08-19T04:11:20;101408.00;;;16.58;94.58
69037;BME280;58547;51.690;5.186;2022-08-19T04:13:47;101408.63;;;16.62;95.29
69037;BME280;58547;51.690;5.186;2022-08-19T04:16:12;101410.75;;;16.56;95.26
69037;BME280;58547;51.690;5.186;2022-08-19T04:18:38;101401.47;;;16.64;94.49
69037;BME280;58547;51.690;5.186;2022-08-19T04:21:06;101408.56;;;16.50;96.86
69037;BME280;58547;51.690;5.186;2022-08-19T04:23:33;101408.56;;;16.50;96.21
69037;BME280;58547;51.690;5.186;2022-08-19T04:25:58;101404.22;;;16.49;96.25
69037;BME280;58547;51.690;5.186;2022-08-19T04:28:23;101400.75;;;16.49;95.25
69037;BME280;58547;51.690;5.186;2022-08-19T04:30:51;101396.75;;;16.43;95.65
69037;BME280;58547;51.690;5.186;2022-08-19T04:33:19;101402.44;;;16.37;96.95
69037;BME280;58547;51.690;5.186;2022-08-19T04:35:47;101387.63;;;16.23;97.63
69037;BME280;58547;51.690;5.186;2022-08-19T04:38:15;101396.47;;;16.22;98.06
69037;BME280;58547;51.690;5.186;2022-08-19T04:40:48;101402.25;;;16.14;98.61
69037;BME280;58547;51.690;5.186;2022-08-19T04:43:34;101398.06;;;16.12;98.35
69037;BME280;58547;51.690;5.186;2022-08-19T04:48:31;101399.22;;;16.08;98.63
69037;BME280;58547;51.690;5.186;2022-08-19T04:50:57;101398.06;;;16.12;98.56
69037;BME280;58547;51.690;5.186;2022-08-19T04:53:28;101403.63;;;16.07;98.31
69037;BME280;58547;51.690;5.186;2022-08-19T04:56:12;101409.13;;;16.04;99.07
69037;BME280;58547;51.690;5.186;2022-08-19T04:58:39;101417.22;;;16.01;98.56
69037;BME280;58547;51.690;5.186;2022-08-19T05:01:06;101424.78;;;16.06;98.08
69037;BME280;58547;51.690;5.186;2022-08-19T05:03:32;101433.09;;;16.12;96.87
69037;BME280;58547;51.690;5.186;2022-08-19T05:06:04;101426.69;;;16.04;98.53
69037;BME280;58547;51.690;5.186;2022-08-19T05:08:30;101433.66;;;16.05;98.44
69037;BME280;58547;51.690;5.186;2022-08-19T05:10:55;101435.97;;;16.09;97.48
69037;BME280;58547;51.690;5.186;2022-08-19T05:13:22;101436.59;;;16.00;98.76
69037;BME280;58547;51.690;5.186;2022-08-19T05:15:55;101439.75;;;16.05;97.87
69037;BME280;58547;51.690;5.186;2022-08-19T05:18:20;101432.81;;;16.04;98.45
69037;BME280;58547;51.690;5.186;2022-08-19T05:21:09;101434.69;;;16.02;98.91
69037;BME280;58547;51.690;5.186;2022-08-19T05:23:53;101434.69;;;16.02;99.15
69037;BME280;58547;51.690;5.186;2022-08-19T05:26:18;101439.53;;;16.08;97.81
69037;BME280;58547;51.690;5.186;2022-08-19T05:28:44;101448.16;;;16.10;98.86
69037;BME280;58547;51.690;5.186;2022-08-19T05:31:09;101455.94;;;16.12;98.26
69037;BME280;58547;51.690;5.186;2022-08-19T05:33:34;101449.84;;;16.11;98.85
69037;BME280;58547;51.690;5.186;2022-08-19T05:36:01;101449.53;;;16.16;97.95
69037;BME280;58547;51.690;5.186;2022-08-19T05:38:26;101448.59;;;16.17;98.48
69037;BME280;58547;51.690;5.186;2022-08-19T05:40:52;101452.81;;;16.19;97.62
69037;BME280;58547;51.690;5.186;2022-08-19T05:43:17;101448.19;;;16.23;98.97
69037;BME280;58547;51.690;5.186;2022-08-19T05:45:43;101453.88;;;16.30;96.95
69037;BME280;58547;51.690;5.186;2022-08-19T05:48:12;101455.53;;;16.31;98.79
69037;BME280;58547;51.690;5.186;2022-08-19T05:50:39;101458.50;;;16.26;98.53
69037;BME280;58547;51.690;5.186;2022-08-19T05:53:05;101461.97;;;16.27;98.61
69037;BME280;58547;51.690;5.186;2022-08-19T05:55:30;101451.53;;;16.38;96.42
69037;BME280;58547;51.690;5.186;2022-08-19T05:57:56;101443.72;;;16.49;97.59
69037;BME280;58547;51.690;5.186;2022-08-19T06:00:21;101455.22;;;16.48;97.93
69037;BME280;58547;51.690;5.186;2022-08-19T06:02:46;101445.72;;;16.46;98.41
69037;BME280;58547;51.690;5.186;2022-08-19T06:05:12;101449.63;;;16.53;97.88
69037;BME280;58547;51.690;5.186;2022-08-19T06:07:38;101454.91;;;16.53;98.99
69037;BME280;58547;51.690;5.186;2022-08-19T06:10:07;101456.03;;;16.62;98.27
69037;BME280;58547;51.690;5.186;2022-08-19T06:12:33;101457.09;;;16.59;98.58
69037;BME280;58547;51.690;5.186;2022-08-19T06:15:04;101465.75;;;16.48;99.30
69037;BME280;58547;51.690;5.186;2022-08-19T06:17:30;101457.84;;;16.48;99.32
69037;BME280;58547;51.690;5.186;2022-08-19T06:19:56;101462.47;;;16.57;97.89
69037;BME280;58547;51.690;5.186;2022-08-19T06:22:21;101459.84;;;16.57;99.71
69037;BME280;58547;51.690;5.186;2022-08-19T06:24:47;101464.38;;;16.55;100.00
69037;BME280;58547;51.690;5.186;2022-08-19T06:27:12;101464.91;;;16.61;100.00
69037;BME280;58547;51.690;5.186;2022-08-19T06:29:38;101460.56;;;16.59;100.00
69037;BME280;58547;51.690;5.186;2022-08-19T06:32:03;101468.06;;;16.53;100.00
69037;BME280;58547;51.690;5.186;2022-08-19T06:34:31;101473.97;;;16.56;100.00
69037;BME280;58547;51.690;5.186;2022-08-19T06:36:58;101469.53;;;16.57;100.00
69037;BME280;58547;51.690;5.186;2022-08-19T06:39:28;101473.00;;;16.57;100.00
69037;BME280;58547;51.690;5.186;2022-08-19T06:41:57;101471.44;;;16.55;100.00
69037;BME280;58547;51.690;5.186;2022-08-19T06:44:26;101469.13;;;16.63;100.00
69037;BME280;58547;51.690;5.186;2022-08-19T06:46:53;101463.50;;;16.68;100.00
69037;BME280;58547;51.690;5.186;2022-08-19T06:49:19;101460.78;;;16.69;100.00
69037;BME280;58547;51.690;5.186;2022-08-19T06:51:45;101458.25;;;16.68;100.00
69037;BME280;58547;51.690;5.186;2022-08-19T06:54:13;101474.78;;;16.70;100.00
69037;BME280;58547;51.690;5.186;2022-08-19T06:56:38;101474.78;;;16.70;100.00
69037;BME280;58547;51.690;5.186;2022-08-19T06:59:05;101477.00;;;16.76;100.00
69037;BME280;58547;51.690;5.186;2022-08-19T07:01:40;101476.16;;;16.75;100.00
69037;BME280;58547;51.690;5.186;2022-08-19T07:04:07;101476.59;;;16.82;100.00
69037;BME280;58547;51.690;5.186;2022-08-19T07:06:34;101477.41;;;16.95;100.00
69037;BME280;58547;51.690;5.186;2022-08-19T07:09:00;101476.53;;;17.08;100.00
69037;BME280;58547;51.690;5.186;2022-08-19T07:11:25;101476.09;;;17.14;100.00
69037;BME280;58547;51.690;5.186;2022-08-19T07:13:51;101480.53;;;17.13;100.00
69037;BME280;58547;51.690;5.186;2022-08-19T07:16:18;101479.88;;;17.10;100.00
69037;BME280;58547;51.690;5.186;2022-08-19T07:18:50;101478.38;;;17.18;100.00
69037;BME280;58547;51.690;5.186;2022-08-19T07:21:20;101477.34;;;17.21;100.00
69037;BME280;58547;51.690;5.186;2022-08-19T07:23:47;101477.09;;;17.24;100.00
69037;BME280;58547;51.690;5.186;2022-08-19T07:26:23;101472.00;;;17.34;99.91
69037;BME280;58547;51.690;5.186;2022-08-19T07:28:49;101477.19;;;17.35;99.31
69037;BME280;58547;51.690;5.186;2022-08-19T07:31:18;101472.50;;;17.39;99.40
69037;BME280;58547;51.690;5.186;2022-08-19T07:33:44;101479.28;;;17.30;99.44
69037;BME280;58547;51.690;5.186;2022-08-19T07:36:12;101482.56;;;17.34;99.32
69037;BME280;58547;51.690;5.186;2022-08-19T07:38:40;101470.50;;;17.43;100.00
69037;BME280;58547;51.690;5.186;2022-08-19T07:41:06;101481.66;;;17.46;100.00
69037;BME280;58547;51.690;5.186;2022-08-19T07:43:32;101488.78;;;17.57;99.21
69037;BME280;58547;51.690;5.186;2022-08-19T07:45:57;101491.31;;;17.58;97.58
69037;BME280;58547;51.690;5.186;2022-08-19T07:48:25;101490.72;;;17.66;99.43
69037;BME280;58547;51.690;5.186;2022-08-19T07:50:56;101493.06;;;17.71;97.14
69037;BME280;58547;51.690;5.186;2022-08-19T07:53:23;101485.00;;;17.72;97.41
69037;BME280;58547;51.690;5.186;2022-08-19T07:55:49;101482.25;;;17.74;98.17
69037;BME280;58547;51.690;5.186;2022-08-19T07:58:17;101491.63;;;17.78;97.43
69037;BME280;58547;51.690;5.186;2022-08-19T08:00:45;101495.09;;;17.78;96.60
69037;BME280;58547;51.690;5.186;2022-08-19T08:03:11;101503.25;;;17.75;96.89
69037;BME280;58547;51.690;5.186;2022-08-19T08:05:36;101503.47;;;17.72;97.50
69037;BME280;58547;51.690;5.186;2022-08-19T08:08:20;101510.00;;;17.79;97.00
69037;BME280;58547;51.690;5.186;2022-08-19T08:11:04;101513.16;;;17.85;97.31
69037;BME280;58547;51.690;5.186;2022-08-19T08:13:30;101497.81;;;17.90;97.70
69037;BME280;58547;51.690;5.186;2022-08-19T08:15:56;101507.56;;;18.00;97.27
69037;BME280;58547;51.690;5.186;2022-08-19T08:18:23;101506.03;;;18.09;96.47
69037;BME280;58547;51.690;5.186;2022-08-19T08:20:48;101508.69;;;18.20;95.07
69037;BME280;58547;51.690;5.186;2022-08-19T08:23:14;101511.00;;;18.25;95.60
69037;BME280;58547;51.690;5.186;2022-08-19T08:25:52;101514.00;;;18.32;94.72
69037;BME280;58547;51.690;5.186;2022-08-19T08:28:18;101518.94;;;18.36;94.64
69037;BME280;58547;51.690;5.186;2022-08-19T08:30:45;101525.31;;;18.45;95.24
69037;BME280;58547;51.690;5.186;2022-08-19T08:33:13;101520.75;;;18.47;94.11
69037;BME280;58547;51.690;5.186;2022-08-19T08:35:39;101521.00;;;18.55;93.74
69037;BME280;58547;51.690;5.186;2022-08-19T08:38:06;101517.28;;;18.58;92.80
69037;BME280;58547;51.690;5.186;2022-08-19T08:43:23;101533.16;;;18.69;92.22
69037;BME280;58547;51.690;5.186;2022-08-19T08:45:56;101529.31;;;18.73;92.15
69037;BME280;58547;51.690;5.186;2022-08-19T08:51:02;101537.81;;;18.77;92.58
69037;BME280;58547;51.690;5.186;2022-08-19T08:53:28;101532.34;;;18.80;91.93
69037;BME280;58547;51.690;5.186;2022-08-19T08:55:53;101545.66;;;18.78;92.41
69037;BME280;58547;51.690;5.186;2022-08-19T08:58:25;101545.19;;;18.85;91.61
69037;BME280;58547;51.690;5.186;2022-08-19T09:00:54;101546.53;;;18.90;91.86
69037;BME280;58547;51.690;5.186;2022-08-19T09:03:22;101545.53;;;18.91;91.27
69037;BME280;58547;51.690;5.186;2022-08-19T09:06:03;101545.81;;;18.88;92.14
69037;BME280;58547;51.690;5.186;2022-08-19T09:09:01;101547.25;;;18.92;91.24
69037;BME280;58547;51.690;5.186;2022-08-19T09:11:50;101546.53;;;18.90;91.15
69037;BME280;58547;51.690;5.186;2022-08-19T09:14:31;101552.75;;;18.89;91.63
69037;BME280;58547;51.690;5.186;2022-08-19T09:16:58;101544.00;;;19.00;91.83
69037;BME280;58547;51.690;5.186;2022-08-19T09:19:24;101551.44;;;19.06;90.60
69037;BME280;58547;51.690;5.186;2022-08-19T09:21:50;101555.66;;;19.09;90.73
69037;BME280;58547;51.690;5.186;2022-08-19T09:24:15;101557.81;;;19.15;90.29
69037;BME280;58547;51.690;5.186;2022-08-19T09:26:41;101554.78;;;19.19;90.69
69037;BME280;58547;51.690;5.186;2022-08-19T09:29:09;101552.97;;;19.20;90.02
69037;BME280;58547;51.690;5.186;2022-08-19T09:31:35;101546.75;;;19.21;90.20
69037;BME280;58547;51.690;5.186;2022-08-19T09:34:00;101546.00;;;19.30;89.88
69037;BME280;58547;51.690;5.186;2022-08-19T09:36:29;101545.97;;;19.41;89.60
69037;BME280;58547;51.690;5.186;2022-08-19T09:38:58;101543.75;;;19.58;88.45
69037;BME280;58547;51.690;5.186;2022-08-19T09:41:25;101542.31;;;19.65;88.97
69037;BME280;58547;51.690;5.186;2022-08-19T09:43:53;101538.91;;;19.74;87.96
69037;BME280;58547;51.690;5.186;2022-08-19T09:46:21;101551.22;;;19.75;86.81
69037;BME280;58547;51.690;5.186;2022-08-19T09:48:47;101545.97;;;19.85;87.66
69037;BME280;58547;51.690;5.186;2022-08-19T09:51:23;101542.81;;;19.91;86.30
69037;BME280;58547;51.690;5.186;2022-08-19T09:53:49;101548.84;;;19.93;85.37
69037;BME280;58547;51.690;5.186;2022-08-19T09:56:17;101550.84;;;20.01;86.00
69037;BME280;58547;51.690;5.186;2022-08-19T09:58:42;101553.94;;;20.06;85.51
69037;BME280;58547;51.690;5.186;2022-08-19T10:01:08;101554.63;;;20.19;85.55
69037;BME280;58547;51.690;5.186;2022-08-19T10:03:35;101554.34;;;20.22;84.39
69037;BME280;58547;51.690;5.186;2022-08-19T10:06:03;101555.53;;;20.30;84.89
69037;BME280;58547;51.690;5.186;2022-08-19T10:08:32;101555.72;;;20.38;84.46
69037;BME280;58547;51.690;5.186;2022-08-19T10:10:59;101559.50;;;20.45;84.03
69037;BME280;58547;51.690;5.186;2022-08-19T10:13:28;101543.59;;;20.45;83.73
69037;BME280;58547;51.690;5.186;2022-08-19T10:15:56;101544.78;;;20.52;83.95
69037;BME280;58547;51.690;5.186;2022-08-19T10:18:23;101546.66;;;20.61;83.64
69037;BME280;58547;51.690;5.186;2022-08-19T10:20:50;101549.38;;;20.71;82.33
69037;BME280;58547;51.690;5.186;2022-08-19T10:23:17;101550.16;;;20.93;82.11
69037;BME280;58547;51.690;5.186;2022-08-19T10:25:43;101549.28;;;21.23;80.95
69037;BME280;58547;51.690;5.186;2022-08-19T10:28:09;101545.72;;;21.53;79.85
69037;BME280;58547;51.690;5.186;2022-08-19T10:30:38;101543.66;;;21.76;78.32
69037;BME280;58547;51.690;5.186;2022-08-19T10:33:05;101537.91;;;21.91;77.12
69037;BME280;58547;51.690;5.186;2022-08-19T10:35:30;101539.44;;;21.93;77.82
69037;BME280;58547;51.690;5.186;2022-08-19T10:37:56;101538.88;;;21.99;76.42
69037;BME280;58547;51.690;5.186;2022-08-19T10:40:27;101532.34;;;22.23;76.30
69037;BME280;58547;51.690;5.186;2022-08-19T10:42:54;101535.38;;;22.38;74.89
69037;BME280;58547;51.690;5.186;2022-08-19T10:45:21;101540.94;;;22.45;74.27
69037;BME280;58547;51.690;5.186;2022-08-19T10:47:50;101536.88;;;22.50;74.27
69037;BME280;58547;51.690;5.186;2022-08-19T10:50:16;101537.13;;;22.57;73.21
69037;BME280;58547;51.690;5.186;2022-08-19T10:53:04;101536.00;;;22.59;74.04
69037;BME280;58547;51.690;5.186;2022-08-19T10:55:30;101536.91;;;22.78;73.01
69037;BME280;58547;51.690;5.186;2022-08-19T10:58:24;101529.66;;;22.70;72.42
69037;BME280;58547;51.690;5.186;2022-08-19T11:00:56;101532.66;;;22.85;72.19
69037;BME280;58547;51.690;5.186;2022-08-19T11:03:22;101524.91;;;23.01;71.40
69037;BME280;58547;51.690;5.186;2022-08-19T11:06:00;101526.25;;;23.33;71.00
69037;BME280;58547;51.690;5.186;2022-08-19T11:08:26;101515.31;;;23.36;69.85
69037;BME280;58547;51.690;5.186;2022-08-19T11:10:53;101512.97;;;23.69;68.12
69037;BME280;58547;51.690;5.186;2022-08-19T11:13:22;101518.41;;;24.21;66.51
69037;BME280;58547;51.690;5.186;2022-08-19T11:15:59;101522.69;;;24.67;65.62
69037;BME280;58547;51.690;5.186;2022-08-19T11:18:24;101517.47;;;24.99;63.32
69037;BME280;58547;51.690;5.186;2022-08-19T11:20:50;101522.59;;;25.27;61.85
69037;BME280;58547;51.690;5.186;2022-08-19T11:23:15;101517.47;;;25.50;60.18
69037;BME280;58547;51.690;5.186;2022-08-19T11:25:40;101515.97;;;25.89;59.22
69037;BME280;58547;51.690;5.186;2022-08-19T11:28:06;101519.50;;;25.97;58.03
69037;BME280;58547;51.690;5.186;2022-08-19T11:30:31;101516.16;;;26.03;57.66
69037;BME280;58547;51.690;5.186;2022-08-19T11:32:58;101511.81;;;25.86;57.91
69037;BME280;58547;51.690;5.186;2022-08-19T11:35:25;101506.25;;;26.20;58.11
69037;BME280;58547;51.690;5.186;2022-08-19T11:37:51;101507.13;;;26.21;57.19
69037;BME280;58547;51.690;5.186;2022-08-19T11:40:16;101503.78;;;25.86;57.34
69037;BME280;58547;51.690;5.186;2022-08-19T11:42:41;101512.31;;;25.73;58.28
69037;BME280;58547;51.690;5.186;2022-08-19T11:45:26;101501.94;;;25.70;58.17
69037;BME280;58547;51.690;5.186;2022-08-19T11:47:53;101504.28;;;25.49;59.65
69037;BME280;58547;51.690;5.186;2022-08-19T11:50:18;101499.50;;;25.10;59.87
69037;BME280;58547;51.690;5.186;2022-08-19T11:52:44;101505.41;;;24.87;60.71
69037;BME280;58547;51.690;5.186;2022-08-19T11:55:10;101497.28;;;24.97;60.71
69037;BME280;58547;51.690;5.186;2022-08-19T11:57:36;101499.91;;;25.23;59.63
69037;BME280;58547;51.690;5.186;2022-08-19T12:00:03;101497.44;;;25.38;59.13
69037;BME280;58547;51.690;5.186;2022-08-19T12:02:30;101520.53;;;25.13;60.21
69037;BME280;58547;51.690;5.186;2022-08-19T12:04:55;101513.53;;;24.69;62.21
69037;BME280;58547;51.690;5.186;2022-08-19T12:07:21;101511.78;;;24.26;63.17
69037;BME280;58547;51.690;5.186;2022-08-19T12:09:46;101516.09;;;24.00;64.49
69037;BME280;58547;51.690;5.186;2022-08-19T12:12:12;101520.28;;;23.67;65.89
69037;BME280;58547;51.690;5.186;2022-08-19T12:14:38;101522.78;;;23.51;68.12
69037;BME280;58547;51.690;5.186;2022-08-19T12:17:04;101523.63;;;23.69;66.63
69037;BME280;58547;51.690;5.186;2022-08-19T12:19:31;101521.88;;;23.60;67.99
69037;BME280;58547;51.690;5.186;2022-08-19T12:22:00;101524.72;;;23.58;68.26
69037;BME280;58547;51.690;5.186;2022-08-19T12:24:30;101526.38;;;23.59;68.07
69037;BME280;58547;51.690;5.186;2022-08-19T12:26:57;101526.72;;;23.64;67.41
69037;BME280;58547;51.690;5.186;2022-08-19T12:29:23;101520.81;;;23.53;67.47
69037;BME280;58547;51.690;5.186;2022-08-19T12:31:54;101527.72;;;23.46;68.27
69037;BME280;58547;51.690;5.186;2022-08-19T12:34:19;101517.75;;;23.48;69.07
69037;BME280;58547;51.690;5.186;2022-08-19T12:36:45;101525.50;;;23.23;71.65
69037;BME280;58547;51.690;5.186;2022-08-19T12:39:10;101523.03;;;23.12;74.61
69037;BME280;58547;51.690;5.186;2022-08-19T12:41:36;101519.47;;;22.93;73.33
69037;BME280;58547;51.690;5.186;2022-08-19T12:44:03;101523.47;;;22.79;79.47
69037;BME280;58547;51.690;5.186;2022-08-19T12:46:28;101512.28;;;22.38;78.27
69037;BME280;58547;51.690;5.186;2022-08-19T12:48:53;101516.63;;;22.30;81.82
69037;BME280;58547;51.690;5.186;2022-08-19T12:51:19;101514.94;;;22.29;81.04
69037;BME280;58547;51.690;5.186;2022-08-19T12:53:45;101520.00;;;22.32;83.31
69037;BME280;58547;51.690;5.186;2022-08-19T12:56:12;101520.69;;;22.14;86.78
69037;BME280;58547;51.690;5.186;2022-08-19T12:58:39;101522.06;;;22.18;86.16
69037;BME280;58547;51.690;5.186;2022-08-19T13:01:11;101519.13;;;22.41;83.34
69037;BME280;58547;51.690;5.186;2022-08-19T13:03:36;101512.25;;;22.48;80.72
69037;BME280;58547;51.690;5.186;2022-08-19T13:06:02;101510.22;;;22.70;80.47